createdAt,value
2023-05-03T00:02:25.193Z,55.50
2023-05-03T00:05:01.125Z,55.33
2023-05-03T00:07:33.192Z,55.21
2023-05-03T00:10:06.929Z,55.17
2023-05-03T00:12:41.936Z,55.10
2023-05-03T00:15:14.436Z,55.06
2023-05-03T00:17:46.924Z,55.32
2023-05-03T00:20:19.403Z,55.59
2023-05-03T00:22:51.909Z,55.89
2023-05-03T00:25:24.197Z,55.74
2023-05-03T00:27:57.591Z,55.60
2023-05-03T00:30:32.428Z,55.34
2023-05-03T00:33:03.168Z,55.97
2023-05-03T00:35:35.589Z,56.11
2023-05-03T00:38:09.344Z,55.73
2023-05-03T00:40:42.046Z,55.64
2023-05-03T00:43:15.548Z,55.41
2023-05-03T00:45:48.241Z,55.01
2023-05-03T00:48:20.693Z,55.08
2023-05-03T00:50:54.479Z,55.19
2023-05-03T00:53:31.486Z,55.36
2023-05-03T00:56:05.971Z,55.35
2023-05-03T00:58:40.516Z,55.52
2023-05-03T01:01:12.139Z,55.37
2023-05-03T01:03:47.320Z,55.68
2023-05-03T01:06:32.111Z,55.66
2023-05-03T01:09:12.903Z,55.31
2023-05-03T01:11:54.882Z,55.48
2023-05-03T01:14:37.374Z,55.51
2023-05-03T01:17:13.634Z,55.33
2023-05-03T01:19:50.185Z,55.14
2023-05-03T01:22:30.361Z,55.18
2023-05-03T01:25:10.467Z,55.37
2023-05-03T01:27:44.269Z,55.50
2023-05-03T01:30:17.174Z,55.48
2023-05-03T01:32:57.536Z,55.58
2023-05-03T01:35:36.893Z,55.84
2023-05-03T01:38:10.506Z,56.09
2023-05-03T01:40:48.458Z,56.27
2023-05-03T01:43:22.265Z,56.38
2023-05-03T01:45:56.143Z,56.11
2023-05-03T01:48:29.414Z,56.47
2023-05-03T01:51:02.030Z,56.43
2023-05-03T01:53:34.254Z,56.58
2023-05-03T01:56:08.505Z,56.47
2023-05-03T01:58:41.058Z,56.67
2023-05-03T02:01:13.522Z,56.50
2023-05-03T02:03:46.377Z,56.56
2023-05-03T02:06:18.590Z,56.47
2023-05-03T02:08:51.104Z,56.48
2023-05-03T02:11:23.971Z,56.38
2023-05-03T02:13:56.532Z,56.57
2023-05-03T02:16:29.277Z,57.00
2023-05-03T02:19:02.605Z,57.04
2023-05-03T02:21:36.580Z,56.77
2023-05-03T02:24:09.639Z,57.22
2023-05-03T02:26:42.089Z,57.00
2023-05-03T02:29:15.727Z,56.98
2023-05-03T02:31:48.314Z,57.05
2023-05-03T02:34:20.925Z,57.00
2023-05-03T02:36:53.489Z,57.54
2023-05-03T02:39:26.751Z,57.83
2023-05-03T02:41:59.494Z,58.01
2023-05-03T02:44:33.720Z,58.32
2023-05-03T02:47:06.768Z,58.43
2023-05-03T02:49:40.326Z,58.28
2023-05-03T02:52:12.683Z,58.55
2023-05-03T02:54:47.105Z,58.55
2023-05-03T02:57:19.710Z,58.92
2023-05-03T02:59:52.412Z,58.99
2023-05-03T03:02:26.336Z,59.22
2023-05-03T03:04:58.804Z,59.33
2023-05-03T03:07:32.874Z,59.33
2023-05-03T03:10:05.604Z,59.12
2023-05-03T03:12:38.572Z,59.64
2023-05-03T03:15:13.507Z,59.82
2023-05-03T03:17:44.856Z,59.74
2023-05-03T03:20:17.547Z,58.98
2023-05-03T03:22:50.800Z,58.73
2023-05-03T03:25:23.298Z,58.37
2023-05-03T03:27:56.247Z,58.58
2023-05-03T03:30:28.790Z,59.07
2023-05-03T03:33:07.630Z,58.81
2023-05-03T03:35:42.957Z,59.07
2023-05-03T03:38:15.451Z,58.60
2023-05-03T03:40:54.444Z,58.89
2023-05-03T03:43:28.189Z,58.57
2023-05-03T03:46:01.026Z,58.37
2023-05-03T03:48:33.653Z,58.41
2023-05-03T03:51:06.232Z,58.34
2023-05-03T03:53:42.421Z,59.33
2023-05-03T03:56:15.148Z,59.49
2023-05-03T03:58:48.648Z,59.86
2023-05-03T04:01:21.493Z,59.38
2023-05-03T04:03:54.110Z,58.94
2023-05-03T04:06:27.346Z,59.70
2023-05-03T04:09:00.883Z,59.72
2023-05-03T04:11:34.848Z,58.80
2023-05-03T04:14:07.617Z,59.40
2023-05-03T04:16:40.559Z,58.96
2023-05-03T04:19:13.831Z,58.88
2023-05-03T04:21:46.935Z,58.90
2023-05-03T04:24:19.933Z,59.13
2023-05-03T04:26:52.509Z,59.66
2023-05-03T04:29:31.218Z,59.99
2023-05-03T04:32:04.224Z,59.58
2023-05-03T04:34:36.532Z,59.62
2023-05-03T04:37:09.749Z,59.10
2023-05-03T04:39:45.878Z,59.04
2023-05-03T04:42:18.379Z,59.15
2023-05-03T04:44:51.329Z,59.42
2023-05-03T04:47:25.580Z,59.33
2023-05-03T04:49:58.727Z,59.39
2023-05-03T04:52:31.099Z,59.50
2023-05-03T04:55:03.757Z,59.56
2023-05-03T04:57:36.748Z,59.71
2023-05-03T05:00:13.517Z,59.61
2023-05-03T05:02:49.289Z,59.50
2023-05-03T05:05:22.027Z,60.00
2023-05-03T05:07:54.851Z,59.53
2023-05-03T05:10:27.620Z,59.57
2023-05-03T05:13:02.848Z,59.39
2023-05-03T05:15:33.687Z,59.69
2023-05-03T05:18:06.286Z,59.21
2023-05-03T05:20:39.929Z,59.27
2023-05-03T05:23:12.699Z,59.49
2023-05-03T05:25:46.642Z,59.42
2023-05-03T05:28:19.109Z,59.07
2023-05-03T05:30:51.733Z,59.10
2023-05-03T05:33:24.895Z,58.96
2023-05-03T05:35:58.606Z,59.12
2023-05-03T05:38:31.145Z,59.21
2023-05-03T05:41:05.265Z,59.09
2023-05-03T05:43:39.004Z,58.79
2023-05-03T05:46:11.871Z,58.15
2023-05-03T05:48:44.444Z,57.99
2023-05-03T05:51:17.232Z,58.13
2023-05-03T05:53:49.495Z,57.76
2023-05-03T05:56:23.350Z,57.54
2023-05-03T05:58:56.228Z,57.05
2023-05-03T06:01:31.738Z,57.03
2023-05-03T06:04:03.154Z,56.78
2023-05-03T06:06:35.784Z,56.94
2023-05-03T06:09:17.239Z,56.69
2023-05-03T06:11:56.559Z,56.77
2023-05-03T06:14:30.547Z,56.65
2023-05-03T06:17:04.253Z,56.18
2023-05-03T06:19:36.899Z,56.04
2023-05-03T06:22:10.026Z,56.14
2023-05-03T06:24:42.502Z,56.61
2023-05-03T06:27:14.731Z,56.81
2023-05-03T06:29:47.330Z,57.21
2023-05-03T06:32:21.786Z,56.21
2023-05-03T06:34:54.356Z,55.03
2023-05-03T06:37:27.587Z,53.82
2023-05-03T06:40:00.002Z,54.40
2023-05-03T06:42:32.739Z,54.59
2023-05-03T06:45:12.903Z,54.30
2023-05-03T06:47:45.351Z,54.17
2023-05-03T06:50:17.854Z,54.71
2023-05-03T06:52:50.649Z,54.04
2023-05-03T06:55:22.977Z,53.93
2023-05-03T06:57:55.197Z,53.84
2023-05-03T07:00:27.871Z,54.73
2023-05-03T07:03:00.421Z,55.94
2023-05-03T07:05:33.180Z,56.83
2023-05-03T07:08:06.060Z,56.86
2023-05-03T07:10:38.683Z,56.05
2023-05-03T07:13:11.239Z,56.00
2023-05-03T07:15:45.834Z,54.31
2023-05-03T07:18:18.488Z,53.08
2023-05-03T07:20:51.569Z,52.44
2023-05-03T07:23:24.114Z,51.16
2023-05-03T07:25:56.523Z,51.09
2023-05-03T07:28:28.882Z,51.75
2023-05-03T07:31:01.065Z,52.46
2023-05-03T07:33:35.146Z,50.37
2023-05-03T07:36:07.929Z,48.69
2023-05-03T07:38:40.842Z,48.99
2023-05-03T07:41:13.158Z,47.13
2023-05-03T07:43:48.582Z,46.80
2023-05-03T07:46:20.835Z,46.93
2023-05-03T07:48:53.012Z,46.06
2023-05-03T07:51:25.458Z,44.46
2023-05-03T07:53:58.806Z,44.67
2023-05-03T07:56:31.878Z,44.54
2023-05-03T07:59:09.866Z,44.97
2023-05-03T08:01:42.907Z,43.75
2023-05-03T08:04:15.258Z,42.83
2023-05-03T08:06:47.946Z,42.15
2023-05-03T08:09:20.783Z,42.24
2023-05-03T08:11:52.957Z,41.52
2023-05-03T08:14:25.242Z,41.44
2023-05-03T08:16:57.335Z,41.43
2023-05-03T08:19:29.681Z,41.24
2023-05-03T08:22:03.414Z,40.89
2023-05-03T08:24:35.886Z,40.40
2023-05-03T08:27:08.325Z,40.04
2023-05-03T08:29:40.845Z,39.23
2023-05-03T08:32:12.988Z,38.95
2023-05-03T08:34:45.087Z,39.20
2023-05-03T08:37:17.164Z,41.29
2023-05-03T08:39:49.567Z,41.55
2023-05-03T08:42:23.822Z,42.62
2023-05-03T08:44:57.884Z,40.66
2023-05-03T08:47:33.574Z,40.64
2023-05-03T08:50:07.073Z,40.47
2023-05-03T08:52:40.878Z,39.81
2023-05-03T08:55:13.919Z,39.32
2023-05-03T08:57:46.569Z,39.28
2023-05-03T09:00:19.806Z,39.36
2023-05-03T09:02:52.343Z,39.51
2023-05-03T09:05:41.528Z,39.72
2023-05-03T09:08:16.592Z,39.41
2023-05-03T09:10:47.323Z,39.86
2023-05-03T09:13:19.475Z,40.05
2023-05-03T09:15:57.646Z,39.78
2023-05-03T09:18:30.722Z,39.88
2023-05-03T09:21:03.022Z,40.26
2023-05-03T09:23:35.328Z,41.01
2023-05-03T09:26:08.011Z,41.42
2023-05-03T09:28:44.920Z,40.86
2023-05-03T09:31:17.383Z,40.13
2023-05-03T09:33:49.716Z,40.52
2023-05-03T09:36:22.032Z,39.04
2023-05-03T09:38:56.087Z,38.99
2023-05-03T09:41:32.968Z,39.33
2023-05-03T09:44:05.396Z,39.81
2023-05-03T09:46:37.717Z,39.29
2023-05-03T09:49:10.608Z,38.71
2023-05-03T09:51:43.415Z,38.99
2023-05-03T09:54:18.121Z,38.47
2023-05-03T09:56:49.506Z,39.20
2023-05-03T09:59:21.863Z,39.05
2023-05-03T10:01:57.656Z,38.25
2023-05-03T10:04:33.114Z,38.04
2023-05-03T10:07:11.969Z,37.72
2023-05-03T10:09:46.753Z,38.56
2023-05-03T10:12:18.964Z,37.70
2023-05-03T10:14:53.812Z,37.43
2023-05-03T10:17:46.548Z,37.91
2023-05-03T10:20:30.106Z,37.93
2023-05-03T10:23:12.390Z,38.40
2023-05-03T10:26:17.282Z,39.10
2023-05-03T10:28:51.484Z,38.12
2023-05-03T10:31:48.056Z,37.35
2023-05-03T10:34:25.178Z,37.35
2023-05-03T10:36:57.390Z,36.97
2023-05-03T10:39:32.410Z,36.85
2023-05-03T10:42:08.018Z,36.25
2023-05-03T10:44:52.933Z,38.05
2023-05-03T10:47:26.643Z,37.94
2023-05-03T10:50:29.045Z,36.99
2023-05-03T10:53:01.476Z,36.99
2023-05-03T10:55:34.473Z,36.28
2023-05-03T10:58:14.230Z,37.41
2023-05-03T11:00:47.306Z,38.14
2023-05-03T11:03:40.791Z,37.45
2023-05-03T11:06:27.764Z,36.80
2023-05-03T11:09:00.119Z,36.24
2023-05-03T11:11:32.342Z,35.06
2023-05-03T11:14:05.027Z,36.26
2023-05-03T11:16:40.694Z,37.11
2023-05-03T11:19:13.464Z,37.84
2023-05-03T11:21:47.006Z,38.01
2023-05-03T11:24:19.090Z,39.48
2023-05-03T11:26:51.423Z,39.58
2023-05-03T11:29:25.398Z,39.81
2023-05-03T11:31:58.324Z,40.22
2023-05-03T11:34:31.322Z,39.62
2023-05-03T11:37:04.260Z,40.57
2023-05-03T11:39:37.322Z,39.12
2023-05-03T11:42:09.508Z,38.33
2023-05-03T11:44:41.825Z,37.94
2023-05-03T11:47:14.343Z,36.97
2023-05-03T11:49:55.465Z,37.12
2023-05-03T11:52:28.817Z,36.83
2023-05-03T11:55:02.963Z,36.08
2023-05-03T11:57:37.445Z,35.32
2023-05-03T12:00:18.704Z,35.17
2023-05-03T12:02:52.149Z,35.42
2023-05-03T12:05:25.910Z,36.68
2023-05-03T12:07:59.102Z,35.46
2023-05-03T12:10:36.045Z,34.94
2023-05-03T12:13:09.226Z,36.18
2023-05-03T12:15:43.785Z,36.85
2023-05-03T12:18:18.841Z,35.97
2023-05-03T12:23:34.635Z,38.54
2023-05-03T12:26:09.512Z,37.52
2023-05-03T12:28:42.480Z,36.67
2023-05-03T12:31:17.632Z,38.26
2023-05-03T12:34:11.316Z,37.61
2023-05-03T12:36:43.987Z,36.73
2023-05-03T12:39:16.986Z,36.77
2023-05-03T12:44:28.692Z,36.83
2023-05-03T12:47:01.825Z,37.15
2023-05-03T12:49:38.015Z,35.87
2023-05-03T12:52:36.441Z,37.13
2023-05-03T12:55:04.666Z,34.99
2023-05-03T12:57:37.998Z,35.51
2023-05-03T13:00:14.973Z,35.14
2023-05-03T13:05:34.684Z,35.37
2023-05-03T13:08:10.097Z,35.99
2023-05-03T13:10:44.020Z,36.28
2023-05-03T13:13:16.584Z,35.92
2023-05-03T13:15:49.579Z,35.83
2023-05-03T13:18:22.985Z,35.40
2023-05-03T13:20:55.191Z,35.77
2023-05-03T13:23:27.349Z,36.52
2023-05-03T13:25:59.614Z,36.50
2023-05-03T13:28:31.909Z,36.93
2023-05-03T13:31:04.094Z,35.87
2023-05-03T13:33:38.567Z,36.15
2023-05-03T13:36:11.841Z,37.61
2023-05-03T13:38:44.295Z,37.53
2023-05-03T13:41:16.491Z,37.72
2023-05-03T13:43:48.567Z,37.29
2023-05-03T13:46:20.964Z,38.59
2023-05-03T13:48:56.420Z,39.05
2023-05-03T13:51:29.070Z,38.31
2023-05-03T13:54:02.440Z,38.94
2023-05-03T13:56:35.509Z,38.34
2023-05-03T13:59:09.904Z,38.16
2023-05-03T14:01:43.454Z,38.34
2023-05-03T14:04:15.943Z,38.25
2023-05-03T14:06:48.774Z,38.78
2023-05-03T14:09:21.368Z,38.81
2023-05-03T14:11:55.931Z,37.80
2023-05-03T14:14:30.607Z,36.84
2023-05-03T14:17:03.144Z,37.46
2023-05-03T14:19:37.832Z,36.95
2023-05-03T14:22:10.245Z,37.58
2023-05-03T14:24:42.743Z,37.01
2023-05-03T14:27:16.893Z,37.13
2023-05-03T14:29:49.435Z,36.88
2023-05-03T14:32:23.267Z,37.05
2023-05-03T14:34:55.669Z,37.35
2023-05-03T14:37:28.564Z,37.35
2023-05-03T14:40:01.208Z,37.73
2023-05-03T14:42:34.151Z,37.65
2023-05-03T14:45:10.150Z,37.51
2023-05-03T14:47:46.066Z,37.78
2023-05-03T14:50:18.839Z,37.08
2023-05-03T14:52:51.692Z,37.25
2023-05-03T14:55:24.316Z,38.09
2023-05-03T14:57:57.362Z,36.40
2023-05-03T15:00:29.792Z,36.24
2023-05-03T15:03:02.425Z,35.78
2023-05-03T15:05:35.156Z,36.09
2023-05-03T15:08:08.008Z,36.54
2023-05-03T15:10:42.143Z,36.62
2023-05-03T15:13:15.297Z,35.49
2023-05-03T15:15:48.157Z,35.61
2023-05-03T15:18:20.476Z,34.89
2023-05-03T15:20:53.022Z,35.37
2023-05-03T15:23:25.308Z,35.21
2023-05-03T15:25:58.142Z,35.03
2023-05-03T15:28:30.256Z,34.83
2023-05-03T15:31:02.939Z,34.15
2023-05-03T15:33:41.017Z,33.78
2023-05-03T15:36:14.871Z,34.92
2023-05-03T15:38:47.383Z,33.93
2023-05-03T15:41:20.150Z,35.28
2023-05-03T15:43:52.660Z,35.05
2023-05-03T15:46:25.384Z,34.77
2023-05-03T15:48:57.833Z,34.90
2023-05-03T15:51:30.256Z,33.77
2023-05-03T15:54:02.928Z,35.21
2023-05-03T15:56:35.201Z,36.45
2023-05-03T15:59:07.600Z,35.23
2023-05-03T16:01:39.907Z,35.07
2023-05-03T16:04:12.333Z,35.12
2023-05-03T16:06:44.857Z,34.59
2023-05-03T16:09:19.091Z,34.62
2023-05-03T16:11:51.645Z,34.17
2023-05-03T16:14:24.863Z,34.42
2023-05-03T16:16:57.277Z,35.00
2023-05-03T16:19:29.562Z,35.02
2023-05-03T16:22:01.867Z,35.22
2023-05-03T16:24:35.017Z,37.16
2023-05-03T16:27:07.751Z,37.13
2023-05-03T16:29:39.953Z,36.90
2023-05-03T16:32:12.533Z,37.31
2023-05-03T16:34:44.738Z,36.62
2023-05-03T16:37:17.229Z,37.89
2023-05-03T16:39:49.969Z,38.33
2023-05-03T16:42:22.710Z,38.05
2023-05-03T16:44:55.132Z,38.40
2023-05-03T16:47:28.071Z,38.14
2023-05-03T16:50:00.804Z,38.63
2023-05-03T16:52:35.279Z,38.17
2023-05-03T16:55:09.139Z,38.19
2023-05-03T16:57:42.657Z,37.81
2023-05-03T17:00:16.534Z,38.38
2023-05-03T17:02:49.036Z,38.51
2023-05-03T17:05:21.413Z,38.44
2023-05-03T17:07:53.533Z,39.12
2023-05-03T17:10:26.879Z,39.10
2023-05-03T17:13:01.239Z,39.04
2023-05-03T17:15:34.085Z,38.80
2023-05-03T17:18:06.560Z,38.79
2023-05-03T17:20:39.208Z,40.10
2023-05-03T17:23:11.446Z,39.78
2023-05-03T17:25:44.487Z,39.75
2023-05-03T17:28:16.793Z,39.35
2023-05-03T17:30:49.609Z,38.81
2023-05-03T17:33:22.185Z,38.91
2023-05-03T17:35:54.521Z,38.62
2023-05-03T17:38:27.005Z,38.79
2023-05-03T17:41:03.852Z,39.07
2023-05-03T17:43:36.691Z,39.43
2023-05-03T17:46:13.741Z,39.39
2023-05-03T17:48:48.385Z,39.73
2023-05-03T17:51:20.761Z,39.29
2023-05-03T17:53:54.785Z,39.66
2023-05-03T17:56:27.080Z,39.54
2023-05-03T17:58:59.309Z,40.60
2023-05-03T18:01:31.754Z,41.12
2023-05-03T18:04:04.543Z,41.92
2023-05-03T18:06:36.996Z,42.38
2023-05-03T18:09:09.503Z,42.60
2023-05-03T18:11:44.954Z,43.01
2023-05-03T18:14:17.795Z,43.58
2023-05-03T18:16:50.766Z,44.02
2023-05-03T18:19:24.108Z,44.13
2023-05-03T18:21:56.246Z,44.40
2023-05-03T18:24:28.555Z,43.48
2023-05-03T18:27:00.979Z,43.92
2023-05-03T18:29:33.283Z,43.86
2023-05-03T18:32:05.714Z,44.78
2023-05-03T18:34:38.396Z,44.64
2023-05-03T18:37:10.901Z,44.19
2023-05-03T18:39:43.315Z,44.92
2023-05-03T18:42:17.656Z,45.49
2023-05-03T18:44:50.788Z,46.74
2023-05-03T18:47:23.527Z,47.17
2023-05-03T18:49:55.901Z,47.38
2023-05-03T18:52:28.529Z,48.08
2023-05-03T18:55:01.200Z,48.53
2023-05-03T18:57:33.414Z,48.60
2023-05-03T19:00:06.518Z,49.11
2023-05-03T19:02:38.538Z,49.03
2023-05-03T19:05:13.538Z,49.36
2023-05-03T19:07:48.951Z,49.35
2023-05-03T19:10:21.677Z,49.92
2023-05-03T19:12:55.914Z,49.04
2023-05-03T19:15:28.403Z,49.54
2023-05-03T19:18:00.729Z,48.83
2023-05-03T19:20:33.151Z,48.20
2023-05-03T19:23:06.502Z,48.98
2023-05-03T19:25:39.174Z,48.52
2023-05-03T19:28:11.870Z,48.53
2023-05-03T19:30:45.744Z,49.83
2023-05-03T19:33:17.915Z,50.86
2023-05-03T19:35:50.339Z,50.74
2023-05-03T19:38:22.862Z,50.81
2023-05-03T19:41:06.166Z,50.78
2023-05-03T19:43:38.887Z,51.02
2023-05-03T19:46:12.017Z,50.91
2023-05-03T19:48:44.306Z,50.99
2023-05-03T19:51:17.831Z,51.07
2023-05-03T19:53:50.272Z,50.50
2023-05-03T19:56:22.510Z,50.80
2023-05-03T19:58:55.503Z,51.02
2023-05-03T20:01:27.780Z,51.24
2023-05-03T20:04:00.243Z,51.59
2023-05-03T20:06:32.897Z,51.72
2023-05-03T20:09:05.245Z,51.92
2023-05-03T20:11:37.784Z,52.20
2023-05-03T20:14:10.659Z,52.74
2023-05-03T20:16:43.609Z,52.67
2023-05-03T20:19:16.380Z,52.67
2023-05-03T20:21:48.580Z,53.37
2023-05-03T20:24:22.135Z,53.24
2023-05-03T20:26:54.697Z,53.94
2023-05-03T20:29:27.412Z,54.29
2023-05-03T20:31:59.825Z,54.10
2023-05-03T20:34:32.174Z,53.79
2023-05-03T20:37:04.561Z,53.37
2023-05-03T20:39:37.020Z,53.19
2023-05-03T20:42:09.640Z,53.20
2023-05-03T20:44:43.060Z,53.37
2023-05-03T20:47:15.500Z,52.35
2023-05-03T20:49:48.052Z,51.95
2023-05-03T20:52:20.773Z,52.43
2023-05-03T20:54:53.063Z,52.45
2023-05-03T20:57:25.410Z,52.48
2023-05-03T20:59:57.940Z,52.70
2023-05-03T21:02:30.241Z,52.96
2023-05-03T21:05:03.179Z,53.13
2023-05-03T21:07:35.724Z,53.44
2023-05-03T21:10:09.335Z,53.89
2023-05-03T21:12:41.991Z,54.22
2023-05-03T21:15:15.139Z,54.08
2023-05-03T21:17:47.592Z,54.20
2023-05-03T21:20:20.136Z,54.33
2023-05-03T21:22:53.475Z,54.48
2023-05-03T21:25:26.413Z,54.64
2023-05-03T21:27:58.923Z,54.34
2023-05-03T21:30:31.849Z,54.43
2023-05-03T21:33:04.037Z,54.39
2023-05-03T21:35:37.140Z,54.72
2023-05-03T21:38:09.349Z,54.54
2023-05-03T21:40:42.016Z,54.43
2023-05-03T21:43:14.390Z,54.49
2023-05-03T21:45:48.284Z,55.17
2023-05-03T21:48:20.714Z,54.69
2023-05-03T21:50:53.362Z,54.69
2023-05-03T21:53:25.714Z,54.58
2023-05-03T21:55:58.080Z,54.78
2023-05-03T21:58:30.403Z,54.72
2023-05-03T22:01:03.664Z,54.61
2023-05-03T22:03:36.898Z,54.57
2023-05-03T22:06:10.076Z,54.56
2023-05-03T22:08:42.324Z,54.61
2023-05-03T22:11:14.651Z,54.28
2023-05-03T22:14:03.152Z,54.41
2023-05-03T22:16:36.224Z,54.27
2023-05-03T22:19:09.074Z,54.81
2023-05-03T22:21:41.730Z,54.68
2023-05-03T22:24:14.160Z,55.14
2023-05-03T22:26:46.478Z,55.38
2023-05-03T22:29:18.822Z,55.49
2023-05-03T22:31:51.825Z,55.65
2023-05-03T22:34:24.343Z,55.73
2023-05-03T22:36:57.166Z,55.72
2023-05-03T22:39:29.625Z,55.72
2023-05-03T22:42:01.951Z,55.73
2023-05-03T22:44:34.792Z,55.75
2023-05-03T22:47:08.519Z,55.93
2023-05-03T22:49:41.045Z,56.11
2023-05-03T22:52:13.653Z,56.11
2023-05-03T22:54:46.005Z,56.09
2023-05-03T22:57:18.493Z,56.03
2023-05-03T22:59:51.008Z,55.74
2023-05-03T23:02:23.583Z,55.70
2023-05-03T23:04:55.970Z,55.83
2023-05-03T23:07:28.677Z,56.12
2023-05-03T23:10:05.118Z,56.32
2023-05-03T23:12:37.790Z,56.41
2023-05-03T23:15:12.656Z,56.40
2023-05-03T23:17:45.375Z,56.57
2023-05-03T23:20:18.079Z,56.28
2023-05-03T23:22:50.122Z,56.43
2023-05-03T23:25:22.419Z,56.65
2023-05-03T23:27:54.712Z,56.95
2023-05-03T23:30:28.264Z,56.79
2023-05-03T23:33:01.237Z,57.23
2023-05-03T23:35:33.965Z,57.38
2023-05-03T23:38:06.417Z,57.22
2023-05-03T23:40:38.937Z,57.30
2023-05-03T23:43:11.372Z,57.50
2023-05-03T23:45:43.928Z,57.54
2023-05-03T23:48:16.624Z,57.46
2023-05-03T23:50:48.833Z,57.48
2023-05-03T23:53:20.994Z,57.48
2023-05-03T23:55:53.502Z,57.62
2023-05-03T23:58:26.128Z,57.74
